Time;durP1;ratioP1;P1;durP2;ratioP2;P2;SDS_P1;SDS_P2;PMS_P1;PMS_P2;Temp;Humidity;BMP_temperature;BMP_pressure;BME280_temperature;BME280_humidity;BME280_pressure;Samples;Min_cycle;Max_cycle;Signal;HPM_P1;HPM_P2
2022/10/30 00:02:21;;;;;;;24.17;17.27;;;12.60;99.90;;;;;;5074869;28;20599;-79
2022/10/30 00:04:48;;;;;;;27.07;16.47;;;12.60;99.90;;;;;;5074590;28;20783;-79
2022/10/30 00:07:16;;;;;;;23.10;17.13;;;12.50;99.90;;;;;;5074992;28;20200;-79
2022/10/30 00:09:42;;;;;;;25.37;17.40;;;12.40;99.90;;;;;;5074630;28;20239;-80
2022/10/30 00:12:09;;;;;;;23.90;16.57;;;12.40;99.90;;;;;;5074538;28;20197;-79
2022/10/30 00:14:36;;;;;;;28.30;17.57;;;12.40;99.90;;;;;;5074762;28;20595;-79
2022/10/30 00:17:03;;;;;;;22.60;17.60;;;12.40;99.90;;;;;;5074136;28;20206;-79
2022/10/30 00:19:29;;;;;;;25.67;17.83;;;12.40;99.90;;;;;;5074454;28;20231;-79
2022/10/30 00:21:56;;;;;;;25.57;16.80;;;12.40;99.90;;;;;;5074527;28;20197;-79
2022/10/30 00:24:24;;;;;;;20.53;16.90;;;12.40;99.90;;;;;;5074671;28;20690;-79
2022/10/30 00:26:51;;;;;;;24.77;17.10;;;12.30;99.90;;;;;;5073800;28;20262;-79
2022/10/30 00:29:18;;;;;;;25.07;17.17;;;12.30;99.90;;;;;;5074237;28;20239;-79
2022/10/30 00:31:45;;;;;;;21.77;16.60;;;12.20;99.90;;;;;;5074191;28;20201;-79
2022/10/30 00:34:12;;;;;;;22.43;15.83;;;12.20;99.90;;;;;;5074376;28;20201;-79
2022/10/30 00:36:38;;;;;;;25.17;16.73;;;12.30;99.90;;;;;;5074365;28;20254;-79
2022/10/30 00:39:05;;;;;;;23.27;17.20;;;12.20;99.90;;;;;;5074041;28;20225;-80
2022/10/30 00:41:33;;;;;;;24.00;17.37;;;12.20;99.90;;;;;;5073911;28;20197;-79
2022/10/30 00:44:00;;;;;;;26.57;17.33;;;12.20;99.90;;;;;;5073801;28;20201;-79
2022/10/30 00:46:30;;;;;;;22.27;17.17;;;12.20;99.90;;;;;;5073511;28;20859;-79
2022/10/30 00:49:01;;;;;;;26.07;15.83;;;12.10;99.90;;;;;;5073741;28;20197;-80
2022/10/30 00:51:30;;;;;;;22.97;16.33;;;12.00;99.90;;;;;;5073492;28;20676;-79
2022/10/30 00:53:59;;;;;;;22.40;16.90;;;12.00;99.90;;;;;;5073545;28;20255;-79
2022/10/30 00:56:26;;;;;;;23.33;16.87;;;12.00;99.90;;;;;;5073721;28;20193;-79
2022/10/30 00:59:00;;;;;;;23.97;17.07;;;12.00;99.90;;;;;;5073321;28;20220;-80
2022/10/30 01:01:31;;;;;;;21.80;17.40;;;12.00;99.90;;;;;;5073569;28;20710;-79
2022/10/30 01:04:00;;;;;;;23.87;16.60;;;12.00;99.90;;;;;;5073729;28;20275;-79
2022/10/30 01:06:29;;;;;;;19.60;16.00;;;12.00;99.90;;;;;;5073773;28;20201;-79
2022/10/30 01:08:56;;;;;;;25.43;17.40;;;11.90;99.90;;;;;;5073569;28;20197;-79
2022/10/30 01:11:23;;;;;;;25.47;17.47;;;11.90;99.90;;;;;;5073516;28;20247;-79
2022/10/30 01:13:51;;;;;;;23.43;17.07;;;11.90;99.90;;;;;;5073528;28;20193;-79
2022/10/30 01:16:43;;;;;;;22.97;17.50;;;11.80;99.90;;;;;;5073287;28;20254;-79
2022/10/30 01:19:21;;;;;;;26.90;17.60;;;11.80;99.90;;;;;;5073124;28;20235;-80
2022/10/30 01:21:59;;;;;;;27.77;17.33;;;11.70;99.90;;;;;;5073281;28;20201;-80
2022/10/30 01:24:35;;;;;;;23.33;17.43;;;11.70;99.90;;;;;;5073328;28;20205;-79
2022/10/30 01:27:13;;;;;;;26.43;17.43;;;11.70;99.90;;;;;;5073347;28;20271;-79
2022/10/30 01:29:55;;;;;;;25.03;16.10;;;11.60;99.90;;;;;;5073598;28;20201;-80
2022/10/30 01:32:37;;;;;;;22.63;15.93;;;11.60;99.90;;;;;;5073057;28;20243;-79
2022/10/30 01:35:09;;;;;;;24.30;16.50;;;11.50;99.90;;;;;;5073109;28;20709;-79
2022/10/30 01:37:43;;;;;;;27.80;16.37;;;11.40;99.90;;;;;;5072278;28;20221;-79
2022/10/30 01:40:13;;;;;;;26.40;16.63;;;11.40;99.90;;;;;;5072880;28;20691;-79
2022/10/30 01:42:46;;;;;;;23.53;16.20;;;11.50;99.90;;;;;;5072828;28;20610;-80
2022/10/30 01:45:17;;;;;;;21.40;16.17;;;11.40;99.90;;;;;;5073041;28;20197;-79
2022/10/30 01:47:57;;;;;;;24.27;16.33;;;11.30;99.90;;;;;;5072906;28;20200;-79
2022/10/30 01:50:31;;;;;;;22.23;16.20;;;11.30;99.90;;;;;;5072856;28;20786;-80
2022/10/30 01:53:03;;;;;;;23.00;16.07;;;11.30;99.90;;;;;;5072633;28;20268;-78
2022/10/30 01:55:37;;;;;;;22.97;15.30;;;11.20;99.90;;;;;;5072988;28;20193;-79
2022/10/30 01:58:14;;;;;;;20.63;15.53;;;11.20;99.90;;;;;;5072837;28;20220;-79
2022/10/30 02:00:43;;;;;;;22.73;16.10;;;11.20;99.90;;;;;;5072913;28;20226;-79
2022/10/30 02:03:11;;;;;;;21.20;16.03;;;11.10;99.90;;;;;;5072655;28;20721;-79
2022/10/30 02:05:42;;;;;;;25.80;16.80;;;11.00;99.90;;;;;;5072453;28;20236;-79
2022/10/30 02:08:08;;;;;;;22.70;16.67;;;11.00;99.90;;;;;;5072657;28;20813;-79
2022/10/30 02:10:36;;;;;;;19.17;15.03;;;11.00;99.90;;;;;;5073023;28;20200;-79
2022/10/30 02:13:03;;;;;;;25.03;15.77;;;10.90;99.90;;;;;;5072735;28;20193;-79
2022/10/30 02:15:31;;;;;;;24.67;15.37;;;10.90;99.90;;;;;;5072663;28;20193;-79
2022/10/30 02:17:57;;;;;;;20.23;14.13;;;10.90;99.90;;;;;;5072442;28;20266;-79
2022/10/30 02:20:26;;;;;;;24.40;15.53;;;10.80;99.90;;;;;;5072665;28;20212;-77
2022/10/30 02:22:52;;;;;;;21.83;16.07;;;10.80;99.90;;;;;;5072804;28;20196;-79
2022/10/30 02:25:19;;;;;;;23.10;15.40;;;10.80;99.90;;;;;;5072420;28;20598;-79
2022/10/30 02:27:46;;;;;;;19.93;15.07;;;10.80;99.90;;;;;;5072566;28;20258;-79
2022/10/30 02:30:13;;;;;;;23.30;16.70;;;10.70;99.90;;;;;;5072487;28;20205;-79
2022/10/30 02:32:39;;;;;;;20.50;15.43;;;10.70;99.90;;;;;;5072422;28;20204;-79
2022/10/30 02:35:07;;;;;;;20.20;15.83;;;10.60;99.90;;;;;;5072755;28;20246;-79
2022/10/30 02:37:35;;;;;;;24.77;15.30;;;10.70;99.90;;;;;;5072384;28;20254;-79
2022/10/30 02:40:02;;;;;;;18.93;14.73;;;10.70;99.90;;;;;;5072477;28;20742;-79
2022/10/30 02:42:29;;;;;;;25.00;15.90;;;10.60;99.90;;;;;;5072349;28;20204;-79
2022/10/30 02:44:55;;;;;;;24.10;15.57;;;10.60;99.90;;;;;;5072329;28;20621;-79
2022/10/30 02:47:22;;;;;;;21.03;15.57;;;10.60;99.90;;;;;;5072237;28;20205;-79
2022/10/30 02:49:49;;;;;;;20.57;14.97;;;10.60;99.90;;;;;;5073957;28;20201;-79
2022/10/30 02:52:15;;;;;;;28.23;15.07;;;10.50;99.90;;;;;;5075983;28;20616;-79
2022/10/30 02:54:43;;;;;;;19.30;15.53;;;10.60;99.90;;;;;;5075753;28;20219;-79
2022/10/30 02:57:10;;;;;;;22.17;15.53;;;10.50;99.90;;;;;;5075754;28;20247;-79
2022/10/30 02:59:37;;;;;;;20.13;15.63;;;10.60;99.90;;;;;;5075467;28;20225;-79
2022/10/30 03:02:03;;;;;;;22.60;15.07;;;10.60;99.90;;;;;;5075783;28;20193;-79
2022/10/30 03:04:30;;;;;;;22.30;16.80;;;10.70;99.90;;;;;;5075559;28;20267;-79
2022/10/30 03:06:57;;;;;;;24.27;16.30;;;10.70;99.90;;;;;;5075439;28;20196;-79
2022/10/30 03:09:23;;;;;;;21.77;16.87;;;10.70;99.90;;;;;;5075460;28;20656;-79
2022/10/30 03:11:51;;;;;;;20.97;15.90;;;10.70;99.90;;;;;;5075435;28;20598;-79
2022/10/30 03:14:18;;;;;;;22.67;14.87;;;10.70;99.90;;;;;;5075558;28;20201;-79
2022/10/30 03:16:45;;;;;;;24.80;16.43;;;10.70;99.90;;;;;;5075645;28;20250;-79
2022/10/30 03:19:11;;;;;;;21.77;14.63;;;10.70;99.90;;;;;;5075508;28;20220;-79
2022/10/30 03:21:38;;;;;;;19.40;14.80;;;10.60;99.90;;;;;;5075372;28;20201;-79
2022/10/30 03:24:05;;;;;;;22.53;16.40;;;10.70;99.90;;;;;;5075336;28;20201;-79
2022/10/30 03:26:32;;;;;;;29.47;16.70;;;10.70;99.90;;;;;;5075321;28;20201;-79
2022/10/30 03:29:00;;;;;;;29.10;15.93;;;10.70;99.90;;;;;;5075152;28;20720;-79
2022/10/30 03:31:27;;;;;;;24.23;15.00;;;10.70;99.90;;;;;;5075471;28;20227;-79
2022/10/30 03:33:53;;;;;;;28.13;16.60;;;10.70;99.90;;;;;;5075321;28;20608;-79
2022/10/30 03:36:20;;;;;;;22.00;14.30;;;10.60;99.90;;;;;;5075133;28;20223;-79
2022/10/30 03:38:47;;;;;;;26.33;15.37;;;10.60;99.90;;;;;;5074926;28;20745;-79
2022/10/30 03:41:13;;;;;;;25.17;15.30;;;10.50;99.90;;;;;;5075010;28;20204;-78
2022/10/30 03:43:40;;;;;;;18.97;14.97;;;10.40;99.90;;;;;;5075091;28;20200;-79
2022/10/30 03:46:09;;;;;;;24.00;15.27;;;10.50;99.90;;;;;;5075073;28;20602;-79
2022/10/30 03:48:36;;;;;;;27.90;15.23;;;10.50;99.90;;;;;;5074819;28;20208;-79
2022/10/30 03:51:03;;;;;;;29.30;16.27;;;10.50;99.90;;;;;;5074640;28;20201;-79
2022/10/30 03:53:30;;;;;;;21.47;15.43;;;10.60;99.90;;;;;;5074736;28;20246;-79
2022/10/30 03:55:59;;;;;;;21.20;14.77;;;10.50;99.90;;;;;;5074851;28;20201;-79
2022/10/30 03:58:26;;;;;;;26.73;15.83;;;10.40;99.90;;;;;;5074642;28;20576;-78
2022/10/30 04:00:53;;;;;;;19.60;15.23;;;10.40;99.90;;;;;;5073716;28;20197;-79
2022/10/30 04:03:21;;;;;;;29.23;16.17;;;10.30;99.90;;;;;;5074368;28;20205;-78
2022/10/30 04:05:49;;;;;;;22.00;15.37;;;10.30;99.90;;;;;;5074562;28;20201;-79
2022/10/30 04:08:16;;;;;;;25.50;14.50;;;10.30;99.90;;;;;;5074597;28;20725;-79
2022/10/30 04:10:43;;;;;;;24.30;15.30;;;10.30;99.90;;;;;;5074306;28;20648;-79
2022/10/30 04:13:11;;;;;;;22.37;14.07;;;10.30;99.90;;;;;;5074577;28;20196;-79
2022/10/30 04:15:38;;;;;;;22.57;14.40;;;10.20;99.90;;;;;;5074342;28;20222;-79
2022/10/30 04:18:05;;;;;;;20.63;14.83;;;10.20;99.90;;;;;;5074177;28;20200;-79
2022/10/30 04:20:33;;;;;;;28.77;14.20;;;10.20;99.90;;;;;;5074192;28;20580;-79
2022/10/30 04:23:02;;;;;;;19.90;14.77;;;10.20;99.90;;;;;;5074036;28;20278;-79
2022/10/30 04:25:29;;;;;;;25.30;15.77;;;10.10;99.90;;;;;;5074232;28;20292;-79
2022/10/30 04:27:56;;;;;;;21.47;15.20;;;10.10;99.90;;;;;;5074208;28;20215;-79
2022/10/30 04:30:23;;;;;;;19.23;15.43;;;10.00;99.90;;;;;;5073986;28;20255;-79
2022/10/30 04:32:51;;;;;;;19.40;14.00;;;10.00;99.90;;;;;;5074046;28;20307;-79
2022/10/30 04:35:20;;;;;;;19.80;13.83;;;9.90;99.90;;;;;;5073716;28;20204;-78
2022/10/30 04:37:54;;;;;;;20.00;13.87;;;10.00;99.90;;;;;;5073926;28;20283;-78
2022/10/30 04:40:20;;;;;;;17.70;12.90;;;9.90;99.90;;;;;;5073569;28;20684;-79
2022/10/30 04:42:47;;;;;;;22.07;13.60;;;9.90;99.90;;;;;;5073798;28;20288;-79
2022/10/30 04:45:14;;;;;;;18.97;13.67;;;9.90;99.90;;;;;;5073647;28;20235;-79
2022/10/30 04:47:41;;;;;;;23.97;14.07;;;9.80;99.90;;;;;;5073799;28;20648;-79
2022/10/30 04:50:08;;;;;;;22.73;13.27;;;9.80;99.90;;;;;;5073479;28;20209;-79
2022/10/30 04:52:35;;;;;;;18.47;12.70;;;9.70;99.90;;;;;;5073661;28;20200;-79
2022/10/30 04:55:03;;;;;;;23.80;14.00;;;9.70;99.90;;;;;;5073290;28;20201;-80
2022/10/30 04:57:31;;;;;;;19.73;14.60;;;9.80;99.90;;;;;;5073564;28;20208;-79
2022/10/30 04:59:57;;;;;;;20.30;13.10;;;9.80;99.90;;;;;;5073171;28;20710;-79
2022/10/30 05:02:24;;;;;;;18.93;12.70;;;9.90;99.90;;;;;;5073458;28;20204;-78
2022/10/30 05:04:51;;;;;;;19.10;13.60;;;9.90;99.90;;;;;;5073114;28;20271;-78
2022/10/30 05:07:18;;;;;;;19.37;12.67;;;9.80;99.90;;;;;;5073468;28;20196;-79
2022/10/30 05:09:45;;;;;;;20.10;11.80;;;9.80;99.90;;;;;;5073330;28;20537;-78
2022/10/30 05:12:13;;;;;;;23.10;13.20;;;9.70;99.90;;;;;;5073127;28;20197;-78
2022/10/30 05:14:39;;;;;;;22.63;13.70;;;9.60;99.90;;;;;;5073190;28;20201;-77
2022/10/30 05:17:06;;;;;;;18.37;12.90;;;9.50;99.90;;;;;;5073026;28;20330;-77
2022/10/30 05:19:33;;;;;;;18.93;13.00;;;9.50;99.90;;;;;;5073179;28;20224;-78
2022/10/30 05:21:59;;;;;;;20.70;12.83;;;9.50;99.90;;;;;;5073277;28;20197;-77
2022/10/30 05:24:26;;;;;;;18.93;12.10;;;9.40;99.90;;;;;;5073209;28;20254;-78
2022/10/30 05:26:52;;;;;;;18.13;12.40;;;9.50;99.90;;;;;;5073124;28;20201;-77
2022/10/30 05:29:20;;;;;;;19.77;12.13;;;9.40;99.90;;;;;;5073031;28;20204;-78
2022/10/30 05:31:47;;;;;;;17.83;12.20;;;9.40;99.90;;;;;;5073210;28;20193;-77
2022/10/30 05:34:14;;;;;;;19.10;12.80;;;9.40;99.90;;;;;;5072845;28;20713;-77
2022/10/30 05:36:40;;;;;;;22.90;14.00;;;9.40;99.90;;;;;;5072968;28;20203;-77
2022/10/30 05:39:07;;;;;;;15.80;12.90;;;9.50;99.90;;;;;;5091146;28;20242;-77
2022/10/30 05:41:34;;;;;;;20.03;13.80;;;9.50;99.90;;;;;;5093006;28;20196;-77
2022/10/30 05:44:01;;;;;;;18.63;13.07;;;9.40;99.90;;;;;;5092878;28;20590;-77
2022/10/30 05:46:29;;;;;;;18.43;12.30;;;9.40;99.90;;;;;;5092786;28;20620;-77
2022/10/30 05:48:55;;;;;;;17.57;12.27;;;9.30;99.90;;;;;;5092817;28;20700;-77
2022/10/30 05:51:22;;;;;;;18.33;12.53;;;9.30;99.90;;;;;;5092771;28;20617;-77
2022/10/30 05:53:49;;;;;;;14.80;11.77;;;9.30;99.90;;;;;;5093034;28;20270;-78
2022/10/30 05:56:16;;;;;;;16.10;11.43;;;9.20;99.90;;;;;;5092993;28;20196;-77
2022/10/30 05:58:42;;;;;;;17.47;12.10;;;9.30;99.90;;;;;;5092836;28;20242;-77
2022/10/30 06:01:09;;;;;;;20.27;12.23;;;9.40;99.90;;;;;;5092886;28;20203;-78
2022/10/30 06:03:37;;;;;;;23.73;12.93;;;9.40;99.90;;;;;;5092978;28;20235;-77
2022/10/30 06:06:04;;;;;;;21.83;12.80;;;9.30;99.90;;;;;;5093034;28;20196;-78
2022/10/30 06:08:30;;;;;;;21.10;13.87;;;9.30;99.90;;;;;;5093012;28;20602;-77
2022/10/30 06:10:57;;;;;;;21.87;13.57;;;9.40;99.90;;;;;;5092937;28;20196;-78
2022/10/30 06:13:24;;;;;;;17.87;13.87;;;9.30;99.90;;;;;;5092719;28;20204;-78
2022/10/30 06:15:50;;;;;;;21.63;14.70;;;9.40;99.90;;;;;;5092931;28;20200;-77
2022/10/30 06:18:17;;;;;;;20.13;14.07;;;9.50;99.90;;;;;;5092944;28;20200;-78
2022/10/30 06:20:45;;;;;;;19.10;13.30;;;9.50;99.90;;;;;;5092622;28;20219;-78
2022/10/30 06:23:11;;;;;;;18.80;14.03;;;9.50;99.90;;;;;;5092443;28;20601;-78
2022/10/30 06:25:39;;;;;;;19.97;14.40;;;9.60;99.90;;;;;;5095608;28;20246;-77
2022/10/30 06:28:06;;;;;;;21.53;14.30;;;9.60;99.90;;;;;;5096434;28;20651;-77
2022/10/30 06:30:32;;;;;;;19.20;14.07;;;9.60;99.90;;;;;;5096659;28;20208;-78
2022/10/30 06:33:00;;;;;;;23.63;14.90;;;9.60;99.90;;;;;;5096586;28;20258;-77
2022/10/30 06:35:27;;;;;;;21.23;14.60;;;9.60;99.90;;;;;;5096328;28;20586;-78
2022/10/30 06:37:57;;;;;;;18.93;14.83;;;9.70;99.90;;;;;;5096326;28;20219;-78
2022/10/30 06:40:24;;;;;;;20.57;15.07;;;9.70;99.90;;;;;;5095988;28;20679;-78
2022/10/30 06:42:52;;;;;;;21.03;14.47;;;9.80;99.90;;;;;;5096502;28;20647;-78
2022/10/30 06:45:21;;;;;;;20.87;14.43;;;9.80;99.90;;;;;;5096329;28;20201;-77
2022/10/30 06:47:48;;;;;;;17.87;13.37;;;9.90;99.90;;;;;;5096255;28;20208;-78
2022/10/30 06:50:17;;;;;;;19.50;13.03;;;9.90;99.90;;;;;;5096103;28;20262;-78
2022/10/30 06:52:43;;;;;;;19.10;13.23;;;10.00;99.90;;;;;;5096205;28;20249;-78
2022/10/30 06:55:11;;;;;;;22.60;13.20;;;10.00;99.90;;;;;;5097404;28;20732;-78
2022/10/30 06:57:38;;;;;;;21.53;13.17;;;10.10;99.90;;;;;;5096205;28;20200;-77
2022/10/30 07:00:07;;;;;;;20.47;13.57;;;10.20;99.90;;;;;;5096042;28;20224;-78
2022/10/30 07:02:34;;;;;;;20.23;13.87;;;10.20;99.90;;;;;;5096090;28;20273;-78
2022/10/30 07:05:01;;;;;;;21.37;15.10;;;10.20;99.90;;;;;;5095925;28;20235;-78
2022/10/30 07:07:28;;;;;;;18.03;14.40;;;10.30;99.90;;;;;;5095890;28;20197;-77
2022/10/30 07:09:55;;;;;;;17.93;13.10;;;10.30;99.90;;;;;;5095705;28;20196;-78
2022/10/30 07:12:23;;;;;;;19.00;12.93;;;10.30;99.90;;;;;;5095828;28;20196;-78
2022/10/30 07:14:50;;;;;;;17.97;13.10;;;10.30;99.90;;;;;;5095895;28;20619;-78
2022/10/30 07:17:17;;;;;;;16.53;12.60;;;10.40;99.90;;;;;;5095916;28;20593;-78
2022/10/30 07:19:43;;;;;;;17.80;12.90;;;10.50;99.90;;;;;;5095807;28;20216;-78
2022/10/30 07:22:10;;;;;;;20.10;13.00;;;10.60;99.90;;;;;;5095600;28;20234;-78
2022/10/30 07:24:37;;;;;;;21.30;13.20;;;10.70;99.90;;;;;;5095828;28;20197;-78
2022/10/30 07:27:03;;;;;;;17.57;12.03;;;10.70;99.90;;;;;;5095917;28;20245;-78
2022/10/30 07:29:31;;;;;;;23.40;13.50;;;10.80;99.90;;;;;;5095622;28;20269;-79
2022/10/30 07:31:58;;;;;;;16.67;13.13;;;10.90;99.90;;;;;;5095466;28;20250;-78
2022/10/30 07:34:24;;;;;;;17.97;13.60;;;10.90;99.90;;;;;;5095484;28;20207;-78
2022/10/30 07:36:51;;;;;;;18.07;13.17;;;11.00;99.90;;;;;;5095230;28;20332;-78
2022/10/30 07:39:18;;;;;;;19.63;14.77;;;11.00;99.90;;;;;;5095415;28;20200;-78
2022/10/30 07:41:44;;;;;;;21.57;14.77;;;11.10;99.90;;;;;;5095211;28;20246;-78
2022/10/30 07:44:11;;;;;;;23.53;16.00;;;11.20;99.90;;;;;;5095274;28;20196;-78
2022/10/30 07:46:39;;;;;;;22.50;15.57;;;11.40;99.90;;;;;;5094874;28;20196;-78
2022/10/30 07:49:06;;;;;;;19.80;15.07;;;11.50;99.90;;;;;;5094907;28;20249;-77
2022/10/30 07:51:34;;;;;;;21.97;14.70;;;11.70;99.90;;;;;;5095903;28;20200;-78
2022/10/30 07:54:01;;;;;;;18.20;14.10;;;11.90;99.90;;;;;;5095239;28;20200;-78
2022/10/30 07:56:27;;;;;;;20.63;14.87;;;12.10;99.90;;;;;;5095039;28;20528;-78
2022/10/30 07:58:54;;;;;;;18.07;13.80;;;12.20;99.90;;;;;;5094883;28;20529;-79
2022/10/30 08:01:21;;;;;;;17.30;13.40;;;12.20;99.90;;;;;;5094809;28;20646;-78
2022/10/30 08:03:48;;;;;;;20.67;13.57;;;12.50;99.90;;;;;;5094497;28;20625;-79
2022/10/30 08:06:15;;;;;;;16.30;12.37;;;12.60;99.90;;;;;;5094706;28;20651;-77
2022/10/30 08:08:42;;;;;;;16.30;12.13;;;12.80;99.90;;;;;;5094707;28;20253;-78
2022/10/30 08:11:08;;;;;;;20.10;12.47;;;13.00;99.90;;;;;;5094809;28;20257;-78
2022/10/30 08:13:35;;;;;;;17.17;11.30;;;13.20;99.90;;;;;;5094592;28;20204;-77
2022/10/30 08:16:02;;;;;;;21.07;11.80;;;13.40;99.90;;;;;;5096303;28;20200;-78
2022/10/30 08:18:28;;;;;;;18.37;11.13;;;13.60;99.90;;;;;;5094513;28;20192;-77
2022/10/30 08:20:56;;;;;;;16.57;10.80;;;13.80;99.90;;;;;;5094174;28;20224;-78
2022/10/30 08:23:23;;;;;;;20.10;11.13;;;14.10;99.90;;;;;;5094173;28;20249;-76
2022/10/30 08:25:49;;;;;;;17.90;10.47;;;14.30;99.90;;;;;;5094528;28;20196;-76
2022/10/30 08:28:16;;;;;;;17.83;10.40;;;14.50;99.90;;;;;;5094415;28;20197;-76
2022/10/30 08:30:43;;;;;;;17.17;10.17;;;14.70;99.90;;;;;;5094310;28;20196;-76
2022/10/30 08:33:13;;;;;;;17.95;10.10;;;14.90;99.90;;;;;;5091831;28;20196;-75
2022/10/30 08:35:46;;;;;;;15.27;9.73;;;15.20;99.90;;;;;;5091948;28;20228;-74
2022/10/30 08:38:14;;;;;;;18.60;11.68;;;15.50;99.90;;;;;;5091735;28;20200;-74
2022/10/30 08:40:41;;;;;;;16.15;10.02;;;15.80;99.90;;;;;;5091873;28;20228;-74
2022/10/30 08:43:08;;;;;;;11.43;9.27;;;16.10;99.90;;;;;;5091917;28;20253;-75
2022/10/30 08:45:35;;;;;;;13.32;9.55;;;16.30;99.90;;;;;;5091323;28;20945;-75
2022/10/30 08:48:05;;;;;;;15.98;9.38;;;16.60;99.90;;;;;;5091226;28;20202;-75
2022/10/30 08:50:33;;;;;;;17.65;8.82;;;16.80;99.90;;;;;;5091978;28;20915;-75
2022/10/30 08:53:01;;;;;;;17.15;9.55;;;17.10;99.90;;;;;;5091692;28;20197;-74
2022/10/30 08:55:29;;;;;;;13.13;9.55;;;17.30;99.90;;;;;;5091645;28;20275;-74
2022/10/30 08:57:56;;;;;;;16.38;9.13;;;17.80;99.90;;;;;;5091315;28;20250;-74
2022/10/30 09:00:23;;;;;;;11.57;9.45;;;18.10;99.90;;;;;;5091886;28;20220;-75
2022/10/30 09:02:50;;;;;;;17.08;9.82;;;18.40;99.90;;;;;;5091588;28;20200;-76
2022/10/30 09:05:17;;;;;;;16.45;9.43;;;18.80;99.90;;;;;;5092267;28;20228;-76
2022/10/30 09:07:44;;;;;;;15.35;9.63;;;19.10;99.90;;;;;;5093482;28;20200;-76
2022/10/30 09:10:11;;;;;;;14.05;9.80;;;19.40;99.90;;;;;;5093404;28;20200;-76
2022/10/30 09:12:39;;;;;;;12.95;8.35;;;19.80;99.90;;;;;;5093314;28;20222;-78
2022/10/30 09:15:07;;;;;;;16.10;8.32;;;20.00;99.90;;;;;;5093504;28;20199;-76
2022/10/30 09:17:34;;;;;;;13.73;8.23;;;20.10;99.90;;;;;;5093540;28;20666;-77
2022/10/30 09:20:00;;;;;;;12.80;7.75;;;19.90;99.90;;;;;;5093408;28;20261;-75
2022/10/30 09:22:27;;;;;;;14.70;8.00;;;20.10;99.90;;;;;;5093340;28;20217;-76
2022/10/30 09:24:54;;;;;;;14.40;7.65;;;20.10;99.90;;;;;;5093251;28;20199;-78
2022/10/30 09:27:20;;;;;;;12.77;7.88;;;20.50;99.90;;;;;;5093266;28;20201;-76
2022/10/30 09:29:48;;;;;;;11.73;7.20;;;20.80;99.90;;;;;;5093132;28;20655;-76
2022/10/30 09:32:15;;;;;;;13.85;7.30;;;21.30;99.90;;;;;;5093080;28;20651;-76
2022/10/30 09:34:42;;;;;;;10.68;7.13;;;21.70;99.90;;;;;;5093075;28;20655;-77
2022/10/30 09:37:08;;;;;;;10.75;6.75;;;21.90;99.90;;;;;;5093055;28;20663;-77
2022/10/30 09:39:35;;;;;;;11.05;7.43;;;22.20;99.90;;;;;;5093023;28;20204;-75
2022/10/30 09:42:17;;;;;;;12.30;6.85;;;22.30;99.90;;;;;;5093062;28;20277;-77
2022/10/30 09:44:56;;;;;;;12.73;6.50;;;22.70;99.90;;;;;;5093054;28;20257;-77
2022/10/30 09:47:33;;;;;;;15.73;7.20;;;23.00;99.90;;;;;;5092817;28;20601;-77
2022/10/30 09:50:13;;;;;;;15.80;6.85;;;23.30;99.90;;;;;;5092920;28;20200;-77
2022/10/30 09:52:45;;;;;;;16.13;6.70;;;23.70;99.90;;;;;;5092990;28;20196;-77
2022/10/30 09:55:23;;;;;;;13.60;6.35;;;24.20;99.90;;;;;;5092960;28;20196;-77
2022/10/30 09:57:59;;;;;;;11.07;6.25;;;24.70;99.90;;;;;;5092881;28;20192;-76
2022/10/30 10:00:33;;;;;;;12.40;6.25;;;25.10;99.90;;;;;;5095521;28;20223;-77
2022/10/30 10:03:17;;;;;;;8.57;5.68;;;25.30;99.90;;;;;;5087618;28;20646;-78
2022/10/30 10:05:49;;;;;;;9.90;6.10;;;25.80;99.90;;;;;;5076650;28;20196;-78
2022/10/30 10:08:22;;;;;;;10.70;6.22;;;26.20;99.90;;;;;;5076534;28;20203;-78
2022/10/30 10:10:52;;;;;;;16.98;7.30;;;27.10;99.90;;;;;;5076320;28;20204;-77
2022/10/30 10:13:29;;;;;;;13.38;6.93;;;27.90;99.90;;;;;;5076362;28;20238;-78
2022/10/30 10:16:02;;;;;;;13.82;8.80;;;29.00;99.90;;;;;;5076489;28;20286;-78
2022/10/30 10:18:35;;;;;;;11.18;6.85;;;29.60;99.90;;;;;;5076288;28;20244;-79
2022/10/30 10:21:09;;;;;;;16.35;7.03;;;30.00;99.90;;;;;;5076410;28;20706;-78
2022/10/30 10:23:44;;;;;;;10.80;6.05;;;30.50;99.90;;;;;;5076249;28;20249;-79
2022/10/30 10:26:22;;;;;;;9.20;5.70;;;31.00;99.90;;;;;;5076288;28;20196;-79
2022/10/30 10:29:00;;;;;;;14.15;6.53;;;31.20;99.90;;;;;;5076055;28;20200;-78
2022/10/30 10:31:39;;;;;;;12.85;6.00;;;31.80;99.90;;;;;;5076026;28;20253;-79
2022/10/30 10:34:35;;;;;;;11.85;5.78;;;31.80;99.40;;;;;;5076112;28;20180;-76
2022/10/30 10:37:12;;;;;;;10.27;5.75;;;32.00;98.20;;;;;;5075847;28;20204;-78
2022/10/30 10:39:50;;;;;;;8.18;5.65;;;31.50;98.00;;;;;;5075854;28;20650;-78
2022/10/30 10:42:25;;;;;;;13.07;5.95;;;32.40;96.60;;;;;;5075400;28;20216;-78
2022/10/30 10:45:09;;;;;;;14.57;5.82;;;32.30;96.70;;;;;;5075604;28;20609;-80
2022/10/30 10:47:53;;;;;;;12.82;5.68;;;32.60;94.50;;;;;;5075606;28;20287;-78
2022/10/30 10:50:24;;;;;;;11.50;5.00;;;32.50;93.60;;;;;;5075474;28;20200;-79
2022/10/30 10:52:57;;;;;;;12.85;5.22;;;33.10;92.00;;;;;;5077289;28;20276;-79
2022/10/30 10:55:27;;;;;;;15.80;5.22;;;33.30;88.50;;;;;;5077815;28;20224;-78
2022/10/30 10:57:58;;;;;;;12.20;5.40;;;33.60;80.70;;;;;;5075541;28;20203;-78
2022/10/30 11:00:27;;;;;;;12.98;4.72;;;32.80;81.70;;;;;;5072302;28;20205;-79
2022/10/30 11:03:03;;;;;;;14.10;4.90;;;33.20;69.20;;;;;;5072927;28;20245;-78
2022/10/30 11:05:35;;;;;;;12.25;5.03;;;33.80;69.60;;;;;;5072695;28;20228;-79
2022/10/30 11:08:11;;;;;;;12.13;5.55;;;34.60;67.30;;;;;;5096541;28;20287;-79
2022/10/30 11:10:38;;;;;;;13.05;4.70;;;35.50;68.20;;;;;;5113719;28;20207;-78
2022/10/30 11:13:05;;;;;;;9.68;4.60;;;36.30;57.20;;;;;;5114957;28;20718;-78
2022/10/30 11:15:40;;;;;;;13.07;4.82;;;36.10;52.90;;;;;;5112472;28;20199;-78
2022/10/30 11:18:09;;;;;;;8.73;5.47;;;36.90;50.80;;;;;;5113046;28;20534;-78
2022/10/30 11:20:44;;;;;;;12.30;4.82;;;37.30;50.70;;;;;;5112750;28;20203;-78
2022/10/30 11:23:30;;;;;;;12.48;5.10;;;37.70;51.30;;;;;;5113153;28;20198;-78
2022/10/30 11:25:56;;;;;;;12.15;4.80;;;38.00;47.70;;;;;;5113068;28;20199;-78
2022/10/30 11:28:43;;;;;;;14.77;5.28;;;38.40;45.60;;;;;;5113440;28;20199;-79
2022/10/30 11:31:21;;;;;;;10.18;5.00;;;39.00;45.60;;;;;;5113495;28;20234;-80
2022/10/30 11:33:50;;;;;;;12.93;5.30;;;39.10;44.70;;;;;;5113105;28;20553;-78
2022/10/30 11:36:21;;;;;;;13.25;5.30;;;39.20;40.90;;;;;;5112572;28;20244;-78
2022/10/30 11:38:47;;;;;;;14.90;5.30;;;39.00;40.20;;;;;;5113276;28;20198;-78
2022/10/30 11:41:15;;;;;;;13.85;5.18;;;38.40;39.60;;;;;;5113152;28;20227;-77
2022/10/30 11:43:43;;;;;;;13.45;5.45;;;38.60;39.80;;;;;;5112901;28;20600;-79
2022/10/30 11:46:19;;;;;;;12.07;4.88;;;38.80;39.40;;;;;;5113027;28;20244;-80
2022/10/30 11:48:53;;;;;;;10.65;5.43;;;38.40;38.90;;;;;;5112828;27;20248;-79
2022/10/30 11:51:32;;;;;;;11.88;5.07;;;38.90;38.10;;;;;;5113061;28;20210;-78
2022/10/30 11:53:59;;;;;;;9.27;4.90;;;39.10;37.20;;;;;;5112868;28;20863;-79
2022/10/30 11:56:25;;;;;;;9.93;4.88;;;39.30;37.50;;;;;;5112860;28;20612;-80
2022/10/30 11:58:54;;;;;;;10.50;4.80;;;39.00;37.20;;;;;;5112280;28;20263;-79
2022/10/30 12:01:23;;;;;;;13.38;5.43;;;38.40;37.00;;;;;;5113142;28;20263;-80
2022/10/30 12:03:51;;;;;;;11.15;4.35;;;38.60;37.00;;;;;;5099903;28;20223;-79
2022/10/30 12:06:20;;;;;;;8.80;5.05;;;38.50;36.70;;;;;;5093812;28;20229;-78
2022/10/30 12:09:01;;;;;;;12.43;4.63;;;38.20;38.00;;;;;;5094041;28;20665;-80
2022/10/30 12:11:31;;;;;;;12.18;4.40;;;38.70;37.50;;;;;;5094387;28;20204;-81
2022/10/30 12:13:58;;;;;;;8.43;4.05;;;39.00;34.60;;;;;;5075548;28;20189;-79
2022/10/30 12:16:26;;;;;;;13.60;4.72;;;39.40;34.00;;;;;;5074352;28;20200;-80
2022/10/30 12:18:57;;;;;;;17.15;4.30;;;40.50;34.20;;;;;;5073763;28;20188;-80
2022/10/30 12:21:24;;;;;;;11.63;4.47;;;40.60;34.40;;;;;;5073468;28;20234;-78
2022/10/30 12:23:56;;;;;;;11.10;4.45;;;40.60;33.40;;;;;;5073489;28;20192;-78
2022/10/30 12:26:25;;;;;;;14.18;5.00;;;39.90;32.70;;;;;;5073519;28;20200;-78
2022/10/30 12:28:58;;;;;;;13.27;4.72;;;39.10;33.10;;;;;;5074008;28;20200;-78
2022/10/30 12:31:32;;;;;;;12.73;4.65;;;39.70;33.80;;;;;;5074045;28;20201;-78
2022/10/30 12:34:13;;;;;;;11.07;4.07;;;39.90;34.00;;;;;;5074289;28;20196;-75
2022/10/30 12:36:45;;;;;;;12.00;4.65;;;39.60;34.10;;;;;;5073640;28;20551;-78
2022/10/30 12:39:16;;;;;;;14.57;4.75;;;40.00;34.30;;;;;;5073615;28;20203;-78
2022/10/30 12:41:51;;;;;;;11.18;4.68;;;40.20;35.10;;;;;;5072241;28;20224;-77
2022/10/30 12:44:22;;;;;;;17.52;5.40;;;39.40;34.70;;;;;;5073856;28;20233;-78